createdAt,value
2017-07-11T00:00:06.185Z,49.5
2017-07-11T00:01:07.632Z,49.7
2017-07-11T00:02:09.055Z,49.5
2017-07-11T00:03:10.524Z,49.8
2017-07-11T00:04:11.946Z,49.9
2017-07-11T00:05:13.368Z,49.8
2017-07-11T00:06:14.790Z,49.7
2017-07-11T00:07:16.214Z,50.0
2017-07-11T00:08:17.635Z,49.9
2017-07-11T00:09:19.071Z,49.8
2017-07-11T00:10:20.493Z,49.8
2017-07-11T00:11:21.915Z,49.7
2017-07-11T00:12:23.341Z,49.8
2017-07-11T00:13:24.766Z,50.3
2017-07-11T00:14:26.205Z,50.3
2017-07-11T00:15:27.629Z,49.7
2017-07-11T00:16:29.052Z,49.9
2017-07-11T00:17:30.472Z,50.5
2017-07-11T00:18:31.895Z,50.3
2017-07-11T00:19:33.316Z,50.4
2017-07-11T00:20:34.747Z,50.2
2017-07-11T00:21:36.173Z,50.2
2017-07-11T00:22:37.596Z,50.4
2017-07-11T00:23:39.017Z,50.3
2017-07-11T00:24:40.442Z,50.3
2017-07-11T00:25:41.861Z,50.3
2017-07-11T00:26:43.284Z,50.2
2017-07-11T00:27:44.726Z,50.3
2017-07-11T00:28:46.150Z,50.4
2017-07-11T00:29:47.570Z,50.3
2017-07-11T00:30:48.993Z,50.3
2017-07-11T00:31:50.417Z,50.3
2017-07-11T00:32:51.842Z,50.2
2017-07-11T00:33:53.264Z,50.6
2017-07-11T00:34:54.686Z,50.3
2017-07-11T00:35:56.117Z,50.6
2017-07-11T00:36:57.540Z,50.6
2017-07-11T00:37:58.961Z,50.6
2017-07-11T00:39:00.385Z,50.4
2017-07-11T00:40:01.808Z,50.3
2017-07-11T00:41:03.234Z,50.6
2017-07-11T00:42:04.657Z,50.7
2017-07-11T00:43:06.082Z,50.4
2017-07-11T00:44:07.506Z,50.5
2017-07-11T00:45:08.927Z,50.6
2017-07-11T00:46:10.354Z,50.4
2017-07-11T00:47:11.774Z,50.5
2017-07-11T00:48:13.201Z,50.5
2017-07-11T00:49:14.619Z,50.7
2017-07-11T00:50:16.044Z,50.7
2017-07-11T00:51:17.472Z,50.9
2017-07-11T00:52:18.904Z,50.8
2017-07-11T00:53:20.328Z,50.7
2017-07-11T00:54:21.753Z,50.8
2017-07-11T00:55:23.180Z,50.7
2017-07-11T00:56:24.608Z,50.6
2017-07-11T00:57:26.034Z,50.8
2017-07-11T00:58:27.456Z,50.9
2017-07-11T00:59:28.869Z,50.9
2017-07-11T01:00:30.304Z,50.9
2017-07-11T01:01:31.724Z,51.0
2017-07-11T01:02:33.156Z,50.9
2017-07-11T01:03:34.580Z,51.7
2017-07-11T01:04:36.004Z,50.9
2017-07-11T01:05:37.427Z,51.4
2017-07-11T01:06:38.849Z,51.0
2017-07-11T01:07:40.314Z,51.0
2017-07-11T01:08:41.738Z,51.0
2017-07-11T01:09:43.159Z,51.0
2017-07-11T01:10:44.584Z,51.2
2017-07-11T01:11:46.005Z,51.3
2017-07-11T01:12:47.456Z,51.3
2017-07-11T01:13:48.850Z,51.3
2017-07-11T01:14:50.275Z,51.1
2017-07-11T01:15:51.708Z,51.0
2017-07-11T01:16:53.130Z,51.0
2017-07-11T01:17:54.555Z,51.0
2017-07-11T01:18:55.978Z,51.1
2017-07-11T01:19:57.400Z,51.0
2017-07-11T01:20:58.828Z,51.1
2017-07-11T01:22:00.248Z,51.3
2017-07-11T01:23:01.677Z,51.1
2017-07-11T01:24:03.100Z,51.2
2017-07-11T01:25:04.521Z,51.4
2017-07-11T01:26:05.942Z,51.2
2017-07-11T01:27:07.365Z,51.0
2017-07-11T01:28:08.786Z,51.1
2017-07-11T01:29:10.215Z,51.2
2017-07-11T01:30:11.638Z,51.0
2017-07-11T01:31:13.094Z,51.6
2017-07-11T01:32:14.515Z,50.9
2017-07-11T01:33:15.937Z,51.1
2017-07-11T01:34:17.366Z,51.1
2017-07-11T01:35:18.791Z,51.0
2017-07-11T01:36:20.209Z,51.1
2017-07-11T01:37:21.631Z,51.1
2017-07-11T01:38:23.054Z,51.0
2017-07-11T01:39:24.478Z,51.0
2017-07-11T01:40:25.899Z,51.0
2017-07-11T01:41:27.321Z,50.9
2017-07-11T01:42:28.744Z,50.8
2017-07-11T01:43:30.166Z,51.1
2017-07-11T01:44:31.590Z,51.0
2017-07-11T01:45:33.011Z,50.9
2017-07-11T01:46:34.445Z,50.9
2017-07-11T01:47:35.878Z,51.0
2017-07-11T01:48:37.306Z,51.0
2017-07-11T01:49:38.728Z,50.7
2017-07-11T01:50:40.149Z,51.0
2017-07-11T01:51:41.570Z,50.9
2017-07-11T01:52:43.082Z,51.1
2017-07-11T01:53:44.502Z,50.9
2017-07-11T01:54:45.921Z,50.9
2017-07-11T01:55:47.399Z,51.1
2017-07-11T01:56:48.818Z,50.9
2017-07-11T01:57:50.250Z,50.9
2017-07-11T01:58:51.669Z,50.5
2017-07-11T01:59:53.127Z,50.8
2017-07-11T02:00:54.537Z,51.0
2017-07-11T02:01:55.960Z,50.7
2017-07-11T02:02:57.392Z,50.5
2017-07-11T02:03:58.807Z,50.6
2017-07-11T02:05:00.228Z,50.8
2017-07-11T02:06:01.652Z,50.5
2017-07-11T02:07:03.078Z,50.6
2017-07-11T02:08:04.501Z,50.4
2017-07-11T02:09:05.934Z,50.7
2017-07-11T02:10:07.361Z,50.7
2017-07-11T02:11:08.785Z,50.8
2017-07-11T02:12:10.208Z,50.6
2017-07-11T02:13:11.632Z,50.8
2017-07-11T02:14:13.053Z,50.8
2017-07-11T02:15:14.475Z,50.6
2017-07-11T02:16:15.898Z,50.5
2017-07-11T02:17:17.321Z,50.8
2017-07-11T02:18:18.767Z,50.7
2017-07-11T02:19:20.206Z,50.5
2017-07-11T02:20:21.629Z,50.7
2017-07-11T02:21:23.052Z,50.4
2017-07-11T02:22:24.471Z,50.8
2017-07-11T02:23:25.895Z,50.6
2017-07-11T02:24:27.317Z,50.6
2017-07-11T02:25:28.738Z,50.7
2017-07-11T02:26:30.158Z,50.7
2017-07-11T02:27:31.580Z,50.8
2017-07-11T02:28:33.146Z,50.9
2017-07-11T02:29:34.567Z,50.5
2017-07-11T02:30:35.988Z,50.6
2017-07-11T02:31:37.410Z,50.7
2017-07-11T02:32:38.832Z,50.7
2017-07-11T02:33:40.256Z,50.5
2017-07-11T02:34:41.679Z,50.8
2017-07-11T02:35:43.098Z,50.5
2017-07-11T02:36:44.524Z,50.6
2017-07-11T02:37:45.944Z,50.4
2017-07-11T02:38:47.372Z,50.7
2017-07-11T02:39:48.791Z,50.7
2017-07-11T02:40:50.220Z,50.8
2017-07-11T02:41:51.645Z,50.5
2017-07-11T02:42:53.067Z,50.9
2017-07-11T02:43:54.489Z,50.8
2017-07-11T02:44:55.911Z,50.7
2017-07-11T02:45:57.331Z,50.6
2017-07-11T02:46:58.754Z,50.7
2017-07-11T02:48:00.175Z,50.5
2017-07-11T02:49:01.610Z,50.7
2017-07-11T02:50:03.026Z,50.6
2017-07-11T02:51:04.449Z,50.7
2017-07-11T02:52:05.870Z,50.9
2017-07-11T02:53:07.293Z,50.6
2017-07-11T02:54:08.716Z,50.5
2017-07-11T02:55:10.144Z,50.8
2017-07-11T02:56:11.563Z,50.6
2017-07-11T02:57:13.001Z,50.8
2017-07-11T02:58:14.425Z,50.7
2017-07-11T02:59:15.848Z,50.8
2017-07-11T03:00:17.268Z,50.8
2017-07-11T03:01:18.690Z,50.8
2017-07-11T03:02:20.130Z,50.8
2017-07-11T03:03:21.550Z,51.0
2017-07-11T03:04:22.976Z,50.6
2017-07-11T03:05:24.399Z,50.8
2017-07-11T03:06:25.821Z,50.8
2017-07-11T03:07:27.241Z,50.8
2017-07-11T03:08:28.661Z,50.8
2017-07-11T03:09:30.081Z,50.5
2017-07-11T03:10:31.507Z,50.4
2017-07-11T03:11:32.931Z,50.8
2017-07-11T03:12:34.352Z,51.2
2017-07-11T03:13:35.774Z,51.2
2017-07-11T03:14:37.217Z,51.1
2017-07-11T03:15:38.612Z,51.3
2017-07-11T03:16:40.044Z,51.3
2017-07-11T03:17:41.465Z,50.9
2017-07-11T03:18:42.891Z,51.0
2017-07-11T03:19:44.311Z,51.2
2017-07-11T03:20:45.735Z,51.1
2017-07-11T03:21:47.157Z,51.0
2017-07-11T03:22:48.577Z,51.1
2017-07-11T03:23:49.994Z,51.0
2017-07-11T03:24:51.421Z,51.2
2017-07-11T03:25:52.842Z,51.1
2017-07-11T03:26:54.263Z,51.3
2017-07-11T03:27:55.682Z,51.2
2017-07-11T03:28:57.104Z,51.1
2017-07-11T03:29:58.529Z,51.1
2017-07-11T03:30:59.953Z,51.3
2017-07-11T03:32:01.387Z,51.2
2017-07-11T03:33:02.809Z,51.3
2017-07-11T03:34:04.228Z,51.0
2017-07-11T03:35:05.653Z,51.1
2017-07-11T03:36:07.074Z,51.0
2017-07-11T03:37:08.480Z,51.2
2017-07-11T03:38:09.919Z,51.1
2017-07-11T03:39:11.346Z,51.3
2017-07-11T03:40:12.762Z,51.3
2017-07-11T03:41:14.183Z,51.3
2017-07-11T03:42:15.606Z,51.2
2017-07-11T03:43:17.029Z,51.3
2017-07-11T03:44:18.455Z,51.3
2017-07-11T03:45:19.882Z,51.2
2017-07-11T03:46:21.302Z,51.0
2017-07-11T03:47:22.726Z,51.1
2017-07-11T03:48:24.147Z,51.2
2017-07-11T03:49:25.570Z,51.1
2017-07-11T03:50:26.991Z,51.0
2017-07-11T03:51:28.416Z,51.1
2017-07-11T03:52:29.837Z,51.3
2017-07-11T03:53:31.273Z,51.2
2017-07-11T03:54:32.698Z,51.1
2017-07-11T03:55:34.123Z,51.0
2017-07-11T03:56:35.545Z,50.5
2017-07-11T03:57:36.966Z,51.2
2017-07-11T03:58:38.389Z,51.5
2017-07-11T03:59:39.810Z,51.3
2017-07-11T04:00:41.240Z,51.2
2017-07-11T04:01:42.663Z,51.3
2017-07-11T04:02:44.085Z,51.3
2017-07-11T04:03:45.508Z,51.3
2017-07-11T04:04:46.937Z,50.9
2017-07-11T04:05:48.365Z,51.1
2017-07-11T04:06:49.793Z,51.5
2017-07-11T04:07:51.213Z,51.6
2017-07-11T04:08:52.637Z,50.9
2017-07-11T04:09:54.060Z,51.7
2017-07-11T04:10:55.484Z,51.3
2017-07-11T04:11:56.904Z,51.4
2017-07-11T04:12:58.333Z,51.9
2017-07-11T04:13:59.753Z,51.1
2017-07-11T04:15:01.251Z,50.8
2017-07-11T04:16:02.672Z,51.7
2017-07-11T04:17:04.098Z,51.7
2017-07-11T04:18:05.521Z,51.1
2017-07-11T04:19:06.945Z,50.9
2017-07-11T04:20:08.379Z,51.5
2017-07-11T04:21:09.796Z,50.9
2017-07-11T04:22:11.218Z,51.4
2017-07-11T04:23:12.658Z,50.8
2017-07-11T04:24:14.081Z,51.0
2017-07-11T04:25:15.506Z,50.9
2017-07-11T04:26:16.928Z,51.1
2017-07-11T04:27:18.351Z,51.5
2017-07-11T04:28:19.775Z,51.7
2017-07-11T04:29:21.198Z,51.5
2017-07-11T04:30:22.621Z,51.2
2017-07-11T04:31:24.046Z,50.8
2017-07-11T04:32:25.469Z,51.5
2017-07-11T04:33:26.896Z,51.2
2017-07-11T04:34:28.326Z,51.2
2017-07-11T04:35:29.750Z,51.3
2017-07-11T04:36:31.175Z,51.0
2017-07-11T04:37:32.599Z,50.7
2017-07-11T04:38:34.021Z,51.5
2017-07-11T04:39:35.447Z,51.3
2017-07-11T04:40:36.871Z,51.2
2017-07-11T04:41:38.296Z,51.2
2017-07-11T04:42:39.768Z,51.2
2017-07-11T04:43:41.143Z,51.0
2017-07-11T04:44:42.568Z,50.7
2017-07-11T04:45:43.988Z,51.2
2017-07-11T04:46:45.423Z,51.1
2017-07-11T04:47:46.845Z,51.2
2017-07-11T04:48:48.269Z,51.1
2017-07-11T04:49:49.706Z,51.5
2017-07-11T04:50:51.135Z,51.5
2017-07-11T04:51:52.562Z,51.6
2017-07-11T04:52:53.980Z,51.8
2017-07-11T04:53:55.405Z,51.3
2017-07-11T04:54:56.836Z,51.2
2017-07-11T04:55:58.262Z,51.3
2017-07-11T04:56:59.685Z,51.3
2017-07-11T04:58:01.107Z,51.3
2017-07-11T04:59:02.535Z,50.8
2017-07-11T05:00:03.981Z,50.9
2017-07-11T05:01:05.405Z,51.0
2017-07-11T05:02:06.829Z,51.2
2017-07-11T05:03:08.251Z,51.3
2017-07-11T05:04:09.690Z,51.2
2017-07-11T05:05:11.115Z,51.0
2017-07-11T05:06:12.539Z,51.1
2017-07-11T05:07:13.964Z,51.2
2017-07-11T05:08:15.388Z,50.9
2017-07-11T05:09:16.814Z,50.9
2017-07-11T05:10:18.229Z,51.2
2017-07-11T05:11:19.662Z,51.0
2017-07-11T05:12:21.092Z,51.1
2017-07-11T05:13:22.507Z,51.1
2017-07-11T05:14:23.931Z,51.1
2017-07-11T05:15:25.356Z,50.9
2017-07-11T05:16:26.791Z,50.7
2017-07-11T05:17:28.215Z,50.7
2017-07-11T05:18:29.639Z,51.0
2017-07-11T05:19:31.062Z,51.0
2017-07-11T05:20:32.487Z,50.9
2017-07-11T05:21:33.917Z,50.9
2017-07-11T05:22:35.340Z,50.7
2017-07-11T05:23:36.769Z,50.8
2017-07-11T05:24:38.192Z,50.6
2017-07-11T05:25:39.617Z,50.8
2017-07-11T05:26:41.065Z,50.8
2017-07-11T05:27:42.491Z,50.8
2017-07-11T05:28:43.915Z,50.7
2017-07-11T05:29:45.341Z,50.5
2017-07-11T05:30:46.764Z,50.6
2017-07-11T05:31:48.187Z,50.7
2017-07-11T05:32:49.608Z,50.7
2017-07-11T05:33:51.034Z,50.6
2017-07-11T05:34:52.457Z,50.8
2017-07-11T05:35:53.883Z,50.6
2017-07-11T05:36:55.323Z,50.5
2017-07-11T05:37:56.749Z,50.4
2017-07-11T05:38:58.167Z,50.7
2017-07-11T05:39:59.617Z,50.6
2017-07-11T05:41:01.036Z,50.7
2017-07-11T05:42:02.459Z,50.3
2017-07-11T05:43:03.885Z,50.2
2017-07-11T05:44:05.312Z,50.7
2017-07-11T05:45:06.740Z,50.5
2017-07-11T05:46:08.163Z,50.7
2017-07-11T05:47:09.641Z,50.8
2017-07-11T05:48:11.020Z,50.2
2017-07-11T05:49:12.441Z,50.4
2017-07-11T05:50:13.867Z,50.2
2017-07-11T05:51:15.292Z,50.3
2017-07-11T05:52:16.717Z,50.3
2017-07-11T05:53:18.139Z,50.4
2017-07-11T05:54:19.573Z,50.4
2017-07-11T05:55:21.000Z,50.3
2017-07-11T05:56:22.421Z,50.3
2017-07-11T05:57:23.857Z,50.5
2017-07-11T05:58:25.295Z,50.4
2017-07-11T05:59:26.719Z,50.1
2017-07-11T06:00:28.149Z,50.1
2017-07-11T06:01:29.578Z,50.5
2017-07-11T06:02:31.000Z,50.3
2017-07-11T06:03:32.420Z,50.1
2017-07-11T06:04:33.848Z,50.3
2017-07-11T06:05:35.271Z,50.4
2017-07-11T06:06:36.694Z,50.3
2017-07-11T06:07:38.120Z,50.3
2017-07-11T06:08:39.545Z,50.2
2017-07-11T06:09:40.970Z,50.2
2017-07-11T06:10:42.396Z,50.2
2017-07-11T06:11:43.815Z,50.1
2017-07-11T06:12:45.241Z,50.4
2017-07-11T06:13:46.667Z,50.3
2017-07-11T06:14:48.089Z,50.1
2017-07-11T06:15:49.512Z,50.3
2017-07-11T06:16:50.937Z,50.3
2017-07-11T06:17:52.363Z,50.3
2017-07-11T06:18:53.795Z,50.3
2017-07-11T06:19:55.221Z,50.3
2017-07-11T06:20:56.647Z,50.3
2017-07-11T06:21:58.072Z,50.3
2017-07-11T06:22:59.493Z,50.1
2017-07-11T06:24:00.922Z,50.3
2017-07-11T06:25:02.348Z,50.2
2017-07-11T06:26:03.773Z,50.4
2017-07-11T06:27:05.220Z,50.3
2017-07-11T06:28:06.674Z,50.3
2017-07-11T06:29:08.097Z,50.1
2017-07-11T06:30:09.527Z,50.1
2017-07-11T06:31:10.952Z,50.3
2017-07-11T06:32:12.381Z,50.5
2017-07-11T06:33:13.796Z,50.4
2017-07-11T06:34:15.233Z,50.4
2017-07-11T06:35:16.658Z,50.4
2017-07-11T06:36:18.094Z,50.4
2017-07-11T06:37:19.515Z,50.4
2017-07-11T06:38:20.940Z,50.4
2017-07-11T06:39:22.364Z,50.1
2017-07-11T06:40:23.789Z,50.3
2017-07-11T06:41:25.214Z,50.3
2017-07-11T06:42:26.639Z,50.4
2017-07-11T06:43:28.069Z,50.5
2017-07-11T06:44:29.497Z,50.5
2017-07-11T06:45:30.923Z,50.4
2017-07-11T06:46:32.347Z,50.4
2017-07-11T06:47:33.773Z,50.2
2017-07-11T06:48:35.209Z,50.3
2017-07-11T06:49:36.632Z,50.4
2017-07-11T06:50:38.058Z,50.6
2017-07-11T06:51:39.484Z,50.5
2017-07-11T06:52:40.907Z,50.5
2017-07-11T06:53:42.332Z,50.5
2017-07-11T06:54:43.755Z,50.3
2017-07-11T06:55:45.198Z,50.5
2017-07-11T06:56:46.606Z,50.4
2017-07-11T06:57:48.024Z,50.4
2017-07-11T06:58:49.457Z,50.4
2017-07-11T06:59:50.884Z,50.5
2017-07-11T07:00:52.309Z,50.3
2017-07-11T07:01:53.744Z,50.4
2017-07-11T07:02:55.157Z,50.3
2017-07-11T07:03:56.581Z,50.3
2017-07-11T07:04:58.005Z,50.1
2017-07-11T07:05:59.431Z,50.1
2017-07-11T07:07:00.854Z,50.2
2017-07-11T07:08:02.276Z,50.2
2017-07-11T07:09:03.704Z,50.3
2017-07-11T07:10:05.129Z,50.3
2017-07-11T07:11:06.555Z,50.3
2017-07-11T07:12:07.987Z,50.2
2017-07-11T07:13:09.408Z,50.3
2017-07-11T07:14:10.831Z,50.1
2017-07-11T07:15:12.253Z,50.1
2017-07-11T07:16:13.679Z,50.5
2017-07-11T07:17:15.104Z,50.1
2017-07-11T07:18:16.528Z,50.5
2017-07-11T07:19:17.955Z,50.4
2017-07-11T07:20:19.378Z,50.3
2017-07-11T07:21:20.804Z,50.2
2017-07-11T07:22:22.228Z,50.5
2017-07-11T07:23:23.651Z,50.1
2017-07-11T07:24:25.075Z,50.3
2017-07-11T07:25:26.498Z,50.3
2017-07-11T07:26:27.922Z,50.2
2017-07-11T07:27:29.348Z,50.2
2017-07-11T07:28:30.772Z,50.1
2017-07-11T07:29:32.200Z,50.3
2017-07-11T07:30:33.624Z,50.3
2017-07-11T07:31:35.048Z,50.3
2017-07-11T07:32:36.472Z,50.4
2017-07-11T07:33:37.897Z,50.3
2017-07-11T07:34:39.319Z,50.3
2017-07-11T07:35:40.742Z,50.3
2017-07-11T07:36:42.166Z,50.2
2017-07-11T07:37:43.592Z,50.2
2017-07-11T07:38:45.020Z,50.3
2017-07-11T07:39:46.448Z,50.3
2017-07-11T07:40:47.877Z,50.3
2017-07-11T07:41:49.297Z,50.3
2017-07-11T07:42:50.720Z,50.3
2017-07-11T07:43:52.143Z,50.3
2017-07-11T07:44:53.569Z,50.3
2017-07-11T07:45:54.991Z,50.3
2017-07-11T07:46:56.417Z,50.3
2017-07-11T07:47:57.846Z,50.3
2017-07-11T07:48:59.270Z,50.3
2017-07-11T07:50:00.692Z,50.3
2017-07-11T07:51:02.114Z,50.3
2017-07-11T07:52:03.541Z,50.3
2017-07-11T07:53:04.967Z,50.3
2017-07-11T07:54:06.390Z,50.4
2017-07-11T07:55:07.817Z,50.3
2017-07-11T07:56:09.253Z,50.3
2017-07-11T07:57:10.667Z,50.3
2017-07-11T07:58:12.089Z,50.5
2017-07-11T07:59:13.517Z,50.6
2017-07-11T08:00:14.939Z,50.3
2017-07-11T08:01:16.366Z,50.2
2017-07-11T08:02:17.790Z,50.5
2017-07-11T08:03:19.215Z,50.4
2017-07-11T08:04:20.641Z,50.1
2017-07-11T08:05:22.065Z,50.4
2017-07-11T08:06:23.490Z,50.1
2017-07-11T08:07:24.916Z,50.1
2017-07-11T08:08:26.342Z,50.0
2017-07-11T08:09:27.766Z,49.8
2017-07-11T08:10:29.194Z,49.7
2017-07-11T08:11:30.618Z,49.5
2017-07-11T08:12:32.041Z,49.8
2017-07-11T08:13:33.471Z,49.8
2017-07-11T08:14:34.895Z,49.7
2017-07-11T08:15:36.321Z,49.1
2017-07-11T08:16:37.748Z,49.3
2017-07-11T08:17:39.173Z,49.3
2017-07-11T08:18:40.598Z,49.2
2017-07-11T08:19:42.028Z,49.3
2017-07-11T08:20:43.463Z,49.3
2017-07-11T08:21:44.886Z,49.4
2017-07-11T08:22:46.312Z,49.2
2017-07-11T08:23:47.737Z,49.3
2017-07-11T08:24:49.165Z,49.2
2017-07-11T08:25:50.590Z,49.3
2017-07-11T08:26:52.013Z,49.5
2017-07-11T08:27:53.442Z,49.3
2017-07-11T08:28:54.865Z,49.2
2017-07-11T08:29:56.290Z,49.4
2017-07-11T08:30:57.716Z,49.2
2017-07-11T08:31:59.154Z,49.3
2017-07-11T08:33:00.576Z,49.3
2017-07-11T08:34:02.007Z,49.5
2017-07-11T08:35:03.429Z,49.3
2017-07-11T08:36:04.855Z,49.5
2017-07-11T08:37:06.286Z,49.3
2017-07-11T08:38:07.712Z,49.2
2017-07-11T08:39:09.135Z,48.6
2017-07-11T08:40:10.562Z,49.3
2017-07-11T08:41:11.985Z,49.0
2017-07-11T08:42:13.412Z,49.3
2017-07-11T08:43:14.833Z,48.5
2017-07-11T08:44:16.257Z,49.2
2017-07-11T08:45:17.683Z,49.3
2017-07-11T08:46:19.105Z,49.3
2017-07-11T08:47:20.534Z,49.1
2017-07-11T08:48:21.960Z,48.7
2017-07-11T08:49:23.384Z,48.6
2017-07-11T08:50:24.810Z,48.3
2017-07-11T08:51:26.233Z,48.8
2017-07-11T08:52:27.660Z,48.3
2017-07-11T08:53:29.084Z,48.3
2017-07-11T08:54:30.511Z,48.3
2017-07-11T08:55:31.935Z,48.3
2017-07-11T08:56:33.360Z,48.3
2017-07-11T08:57:34.786Z,48.3
2017-07-11T08:58:36.217Z,48.4
2017-07-11T08:59:37.645Z,48.7
2017-07-11T09:00:39.073Z,48.6
2017-07-11T09:01:40.490Z,48.4
2017-07-11T09:02:41.916Z,48.2
2017-07-11T09:03:43.345Z,48.4
2017-07-11T09:04:44.766Z,48.5
2017-07-11T09:05:46.190Z,48.3
2017-07-11T09:06:47.617Z,48.1
2017-07-11T09:07:49.048Z,48.1
2017-07-11T09:08:50.473Z,48.1
2017-07-11T09:09:51.902Z,48.0
2017-07-11T09:10:53.327Z,48.1
2017-07-11T09:11:54.750Z,47.9
2017-07-11T09:12:56.175Z,48.6
2017-07-11T09:13:57.615Z,48.1
2017-07-11T09:14:59.041Z,48.2
2017-07-11T09:16:00.465Z,48.3
2017-07-11T09:17:01.890Z,47.8
2017-07-11T09:18:03.314Z,47.8
2017-07-11T09:19:04.738Z,47.8
2017-07-11T09:20:06.165Z,47.5
2017-07-11T09:21:07.589Z,48.0
2017-07-11T09:22:09.019Z,47.7
2017-07-11T09:23:10.446Z,48.0
2017-07-11T09:24:11.874Z,48.6
2017-07-11T09:25:13.296Z,47.9
2017-07-11T09:26:14.722Z,47.6
2017-07-11T09:27:16.147Z,47.6
2017-07-11T09:28:17.571Z,47.5
2017-07-11T09:29:18.997Z,47.5
2017-07-11T09:30:20.422Z,47.7
2017-07-11T09:31:21.849Z,47.7
2017-07-11T09:32:23.275Z,47.4
2017-07-11T09:33:24.703Z,47.4
2017-07-11T09:34:26.126Z,47.3
2017-07-11T09:35:27.550Z,47.1
2017-07-11T09:36:28.989Z,47.2
2017-07-11T09:37:30.415Z,47.3
2017-07-11T09:38:31.845Z,47.0
2017-07-11T09:39:33.271Z,47.0
2017-07-11T09:40:34.695Z,47.3
2017-07-11T09:41:36.119Z,47.2
2017-07-11T09:42:37.554Z,47.3
2017-07-11T09:43:38.988Z,46.9
2017-07-11T09:44:40.441Z,46.9
2017-07-11T09:45:41.865Z,47.0
2017-07-11T09:46:43.291Z,46.7
2017-07-11T09:47:44.720Z,46.7
2017-07-11T09:48:46.146Z,46.5
2017-07-11T09:49:47.569Z,46.6
2017-07-11T09:50:48.994Z,46.9
2017-07-11T09:51:50.417Z,47.2
2017-07-11T09:52:51.843Z,47.1
2017-07-11T09:53:53.268Z,46.9
2017-07-11T09:54:54.697Z,46.7
2017-07-11T09:55:56.114Z,46.5
2017-07-11T09:56:57.542Z,46.9
2017-07-11T09:57:58.968Z,46.9
2017-07-11T09:59:00.394Z,46.6
2017-07-11T10:00:01.820Z,46.5
2017-07-11T10:01:03.243Z,46.5
2017-07-11T10:02:04.669Z,46.5
2017-07-11T10:03:06.094Z,46.4
2017-07-11T10:04:07.544Z,46.3
2017-07-11T10:05:08.972Z,46.4
2017-07-11T10:06:10.396Z,46.3
2017-07-11T10:07:11.823Z,46.0
2017-07-11T10:08:13.247Z,46.3
2017-07-11T10:09:14.673Z,46.2
2017-07-11T10:10:16.098Z,46.1
2017-07-11T10:11:17.523Z,46.3
2017-07-11T10:12:18.955Z,46.3
2017-07-11T10:13:20.386Z,46.2
2017-07-11T10:14:21.807Z,45.8
2017-07-11T10:15:23.228Z,46.2
2017-07-11T10:16:24.667Z,46.0
2017-07-11T10:17:26.079Z,46.0
2017-07-11T10:18:27.505Z,46.1
2017-07-11T10:19:28.929Z,46.1
2017-07-11T10:20:30.353Z,45.9
2017-07-11T10:21:31.782Z,45.7
2017-07-11T10:22:33.210Z,45.2
2017-07-11T10:23:34.636Z,45.5
2017-07-11T10:24:36.064Z,45.2
2017-07-11T10:25:37.495Z,45.2
2017-07-11T10:26:38.915Z,44.9
2017-07-11T10:27:40.342Z,44.7
2017-07-11T10:28:41.771Z,44.6
2017-07-11T10:29:43.199Z,44.6
2017-07-11T10:30:44.625Z,44.6
2017-07-11T10:31:46.049Z,44.7
2017-07-11T10:32:47.476Z,44.9
2017-07-11T10:33:48.904Z,44.6
2017-07-11T10:34:50.336Z,44.6
2017-07-11T10:35:51.754Z,44.4
2017-07-11T10:36:53.182Z,44.2
2017-07-11T10:37:54.608Z,44.2
2017-07-11T10:38:56.036Z,44.2
2017-07-11T10:39:57.465Z,44.2
2017-07-11T10:40:58.893Z,44.2
2017-07-11T10:42:00.319Z,44.4
2017-07-11T10:43:01.744Z,44.2
2017-07-11T10:44:03.168Z,44.3
2017-07-11T10:45:04.597Z,44.4
2017-07-11T10:46:06.021Z,43.7
2017-07-11T10:47:07.450Z,44.4
2017-07-11T10:48:08.883Z,43.9
2017-07-11T10:49:10.305Z,44.3
2017-07-11T10:50:11.732Z,44.4
2017-07-11T10:51:13.157Z,44.2
2017-07-11T10:52:14.586Z,43.9
2017-07-11T10:53:16.028Z,43.9
2017-07-11T10:54:17.451Z,44.2
2017-07-11T10:55:18.878Z,44.2
2017-07-11T10:56:20.305Z,44.4
2017-07-11T10:57:21.729Z,44.3
2017-07-11T10:58:23.153Z,44.3
2017-07-11T10:59:24.581Z,44.3
2017-07-11T11:00:26.005Z,44.2
2017-07-11T11:01:27.447Z,44.1
2017-07-11T11:02:28.875Z,44.4
2017-07-11T11:03:30.302Z,44.2
2017-07-11T11:04:31.786Z,44.6
2017-07-11T11:05:33.220Z,44.4
2017-07-11T11:06:34.648Z,44.4
2017-07-11T11:07:36.072Z,44.3
2017-07-11T11:08:37.500Z,44.3
2017-07-11T11:09:38.926Z,44.4
2017-07-11T11:10:40.354Z,43.8
2017-07-11T11:11:41.782Z,44.2
2017-07-11T11:12:43.236Z,44.0
2017-07-11T11:13:44.665Z,43.8
2017-07-11T11:14:46.110Z,44.4
2017-07-11T11:15:47.536Z,44.3
2017-07-11T11:16:48.962Z,44.2
2017-07-11T11:17:50.389Z,44.4
2017-07-11T11:18:51.821Z,43.7
2017-07-11T11:19:53.245Z,43.7
2017-07-11T11:20:54.673Z,44.2
2017-07-11T11:21:56.099Z,44.2
2017-07-11T11:22:57.526Z,44.3
2017-07-11T11:23:58.951Z,43.9
2017-07-11T11:25:00.382Z,44.3
2017-07-11T11:26:01.812Z,44.4
2017-07-11T11:27:03.241Z,43.7
2017-07-11T11:28:04.666Z,43.6
2017-07-11T11:29:06.095Z,43.8
2017-07-11T11:30:07.520Z,43.8
2017-07-11T11:31:08.949Z,43.7
2017-07-11T11:32:10.373Z,43.7
2017-07-11T11:33:11.803Z,43.3
2017-07-11T11:34:13.231Z,43.2
2017-07-11T11:35:14.660Z,42.8
2017-07-11T11:36:16.087Z,43.2
2017-07-11T11:37:17.517Z,43.0
2017-07-11T11:38:18.958Z,43.0
2017-07-11T11:39:20.388Z,43.0
2017-07-11T11:40:21.822Z,43.0
2017-07-11T11:41:23.253Z,43.0
2017-07-11T11:42:24.680Z,43.4
2017-07-11T11:43:26.111Z,43.4
2017-07-11T11:44:27.538Z,43.0
2017-07-11T11:45:28.990Z,42.9
2017-07-11T11:46:30.393Z,42.4
2017-07-11T11:47:31.820Z,42.9
2017-07-11T11:48:33.244Z,42.4
2017-07-11T11:49:34.680Z,42.7
2017-07-11T11:50:36.106Z,42.4
2017-07-11T11:51:37.534Z,42.3
2017-07-11T11:52:38.960Z,41.6
2017-07-11T11:53:40.389Z,42.2
2017-07-11T11:54:41.816Z,42.0
2017-07-11T11:55:43.247Z,42.2
2017-07-11T11:56:44.672Z,42.2
2017-07-11T11:57:46.098Z,42.2
2017-07-11T11:58:47.526Z,42.0
2017-07-11T11:59:48.958Z,41.9
2017-07-11T12:00:50.391Z,41.8
2017-07-11T12:01:51.820Z,42.1
2017-07-11T12:02:53.249Z,41.2
2017-07-11T12:03:54.678Z,41.3
2017-07-11T12:04:56.105Z,41.2
2017-07-11T12:05:57.533Z,41.8
2017-07-11T12:06:58.962Z,41.2
2017-07-11T12:08:00.386Z,41.8
2017-07-11T12:09:01.822Z,41.1
2017-07-11T12:10:03.253Z,41.4
2017-07-11T12:11:04.681Z,40.9
2017-07-11T12:12:06.109Z,41.0
2017-07-11T12:13:07.539Z,41.2
2017-07-11T12:14:08.968Z,41.8
2017-07-11T12:15:10.399Z,41.9
2017-07-11T12:16:11.846Z,41.9
2017-07-11T12:17:13.273Z,41.9
2017-07-11T12:18:14.700Z,40.9
2017-07-11T12:19:16.141Z,40.4
2017-07-11T12:20:17.569Z,39.7
2017-07-11T12:21:18.998Z,40.8
2017-07-11T12:22:20.424Z,40.6
2017-07-11T12:23:21.850Z,41.5
2017-07-11T12:24:23.278Z,41.9
2017-07-11T12:25:24.704Z,41.7
2017-07-11T12:26:26.133Z,41.7
2017-07-11T12:27:27.566Z,40.8
2017-07-11T12:28:28.993Z,40.9
2017-07-11T12:29:30.421Z,40.4
2017-07-11T12:30:31.852Z,41.1
2017-07-11T12:31:33.278Z,41.0
2017-07-11T12:32:34.704Z,40.6
2017-07-11T12:33:36.135Z,40.4
2017-07-11T12:34:37.563Z,40.5
2017-07-11T12:35:38.990Z,40.3
2017-07-11T12:36:40.422Z,40.5
2017-07-11T12:37:41.846Z,41.1
2017-07-11T12:38:43.273Z,40.4
2017-07-11T12:39:44.699Z,40.6
2017-07-11T12:40:46.123Z,41.4
2017-07-11T12:41:47.549Z,41.3
2017-07-11T12:42:48.977Z,41.4
2017-07-11T12:43:50.405Z,41.3
2017-07-11T12:44:51.830Z,41.4
2017-07-11T12:45:53.261Z,41.7
2017-07-11T12:46:54.686Z,41.0
2017-07-11T12:47:56.111Z,41.0
2017-07-11T12:48:57.539Z,40.5
2017-07-11T12:49:58.964Z,41.3
2017-07-11T12:51:00.391Z,40.7
2017-07-11T12:52:01.818Z,40.6
2017-07-11T12:53:03.261Z,40.4
2017-07-11T12:54:04.691Z,40.9
2017-07-11T12:55:06.116Z,40.6
2017-07-11T12:56:07.547Z,40.4
2017-07-11T12:57:08.975Z,40.4
2017-07-11T12:58:10.403Z,40.2
2017-07-11T12:59:11.829Z,40.3
2017-07-11T13:00:13.254Z,40.9
2017-07-11T13:01:14.681Z,40.5
2017-07-11T13:02:16.106Z,41.0
2017-07-11T13:03:17.533Z,40.9
2017-07-11T13:04:18.982Z,41.1
2017-07-11T13:05:20.403Z,40.9
2017-07-11T13:06:21.829Z,41.0
2017-07-11T13:07:23.253Z,40.8
2017-07-11T13:08:24.684Z,41.0
2017-07-11T13:09:26.111Z,41.2
2017-07-11T13:10:27.535Z,41.2
2017-07-11T13:11:28.961Z,41.4
2017-07-11T13:12:30.388Z,41.1
2017-07-11T13:13:31.815Z,41.0
2017-07-11T13:14:33.244Z,41.4
2017-07-11T13:15:34.672Z,40.8
2017-07-11T13:16:36.101Z,40.9
2017-07-11T13:17:37.527Z,40.9
2017-07-11T13:18:38.959Z,40.6
2017-07-11T13:19:40.383Z,40.8
2017-07-11T13:20:41.812Z,40.9
2017-07-11T13:21:43.240Z,40.9
2017-07-11T13:22:44.669Z,40.9
2017-07-11T13:23:46.099Z,40.9
2017-07-11T13:24:47.531Z,41.1
2017-07-11T13:25:48.959Z,40.7
2017-07-11T13:26:50.418Z,41.0
2017-07-11T13:27:51.845Z,40.8
2017-07-11T13:28:53.279Z,41.1
2017-07-11T13:29:54.708Z,41.1
2017-07-11T13:30:56.134Z,40.9
2017-07-11T13:31:57.564Z,40.7
2017-07-11T13:32:58.988Z,41.2
2017-07-11T13:34:00.413Z,41.5
2017-07-11T13:35:01.840Z,41.1
2017-07-11T13:36:03.272Z,41.1
2017-07-11T13:37:04.701Z,41.3